createdAt,value
2022-11-26T00:04:33.429Z,28.60
2022-11-26T00:14:38.191Z,28.80
2022-11-26T00:19:40.984Z,28.60
2022-11-26T00:24:43.481Z,28.50
2022-11-26T00:29:45.506Z,29.10
2022-11-26T00:34:47.549Z,28.60
2022-11-26T00:39:50.408Z,29.10
2022-11-26T00:44:52.457Z,28.60
2022-11-26T00:49:54.480Z,28.60
2022-11-26T00:54:56.536Z,28.50
2022-11-26T00:59:58.573Z,28.50
2022-11-26T01:05:00.626Z,28.70
2022-11-26T01:10:03.274Z,29.20
2022-11-26T01:15:05.492Z,29.30
2022-11-26T01:20:21.545Z,29.30
2022-11-26T01:25:27.768Z,28.80
2022-11-26T01:30:30.843Z,28.60
2022-11-26T01:35:33.032Z,28.60
2022-11-26T01:41:01.893Z,29.40
2022-11-26T01:46:08.245Z,28.90
2022-11-26T01:51:12.224Z,29.40
2022-11-26T01:56:28.638Z,28.80
2022-11-26T02:01:31.864Z,28.90
2022-11-26T02:06:34.535Z,29.20
2022-11-26T02:11:36.741Z,29.20
2022-11-26T02:16:55.993Z,29.00
2022-11-26T02:22:38.618Z,29.30
2022-11-26T02:28:05.079Z,29.30
2022-11-26T02:33:21.206Z,29.50
2022-11-26T02:38:25.868Z,29.40
2022-11-26T02:43:28.414Z,30.00
2022-11-26T02:48:35.536Z,30.00
2022-11-26T02:53:39.806Z,29.60
2022-11-26T02:58:42.244Z,30.00
2022-11-26T03:03:46.509Z,29.80
2022-11-26T03:08:49.216Z,30.20
2022-11-26T03:13:51.157Z,29.80
2022-11-26T03:18:53.187Z,29.80
2022-11-26T03:23:55.238Z,29.80
2022-11-26T03:28:57.205Z,29.90
2022-11-26T03:33:59.266Z,29.80
2022-11-26T03:39:01.372Z,29.70
2022-11-26T03:44:03.531Z,29.70
2022-11-26T03:49:05.935Z,29.60
2022-11-26T03:54:08.046Z,29.50
2022-11-26T03:59:10.051Z,29.60
2022-11-26T04:04:13.534Z,29.50
2022-11-26T04:09:15.604Z,29.50
2022-11-26T04:14:19.330Z,29.40
2022-11-26T04:19:21.366Z,29.40
2022-11-26T04:24:23.385Z,29.40
2022-11-26T04:29:25.442Z,29.60
2022-11-26T04:34:27.496Z,29.50
2022-11-26T04:39:29.584Z,29.30
2022-11-26T04:44:31.697Z,29.40
2022-11-26T04:49:33.773Z,29.80
2022-11-26T04:54:36.164Z,29.90
2022-11-26T04:59:38.442Z,30.50
2022-11-26T05:09:43.490Z,29.70
2022-11-26T05:14:45.609Z,30.40
2022-11-26T05:19:47.668Z,30.40
2022-11-26T05:24:49.688Z,29.90
2022-11-26T05:29:51.796Z,29.60
2022-11-26T05:34:58.609Z,29.70
2022-11-26T05:40:03.092Z,29.80
2022-11-26T05:45:06.418Z,29.70
2022-11-26T05:50:09.175Z,29.70
2022-11-26T05:55:11.449Z,29.70
2022-11-26T06:00:14.290Z,29.70
2022-11-26T06:10:19.230Z,29.50
2022-11-26T06:20:23.594Z,29.50
2022-11-26T06:30:27.987Z,29.50
2022-11-26T06:35:30.070Z,29.40
2022-11-26T06:40:32.326Z,29.30
2022-11-26T06:45:34.805Z,29.30
2022-11-26T06:50:36.796Z,29.30
2022-11-26T06:55:38.829Z,30.00
2022-11-26T07:00:41.971Z,29.20
2022-11-26T07:05:44.000Z,29.20
2022-11-26T07:10:48.999Z,29.20
2022-11-26T07:15:51.432Z,29.30
2022-11-26T07:20:53.521Z,29.20
2022-11-26T07:25:59.524Z,29.30
2022-11-26T07:31:16.436Z,29.90
2022-11-26T07:36:22.675Z,29.80
2022-11-26T07:41:26.176Z,29.70
2022-11-26T07:46:28.403Z,29.80
2022-11-26T07:51:32.231Z,29.90
2022-11-26T07:56:34.983Z,30.00
2022-11-26T08:01:37.212Z,30.00
2022-11-26T08:06:39.214Z,30.00
2022-11-26T08:11:41.289Z,30.00
2022-11-26T08:16:44.188Z,30.10
2022-11-26T08:21:46.306Z,30.40
2022-11-26T08:26:48.342Z,30.20
2022-11-26T08:31:50.459Z,30.60
2022-11-26T08:36:55.320Z,30.80
2022-11-26T08:41:57.470Z,30.90
2022-11-26T08:46:59.480Z,31.90
2022-11-26T08:52:01.597Z,31.30
2022-11-26T08:57:05.515Z,31.70
2022-11-26T09:02:09.870Z,32.20
2022-11-26T09:07:12.565Z,32.00
2022-11-26T09:12:14.633Z,32.10
2022-11-26T09:17:16.961Z,32.30
2022-11-26T09:22:19.129Z,32.20
2022-11-26T09:27:21.190Z,32.60
2022-11-26T09:32:26.217Z,32.80
2022-11-26T09:37:32.077Z,32.60
2022-11-26T09:42:37.046Z,32.60
2022-11-26T09:47:42.450Z,32.40
2022-11-26T09:53:03.088Z,32.40
2022-11-26T09:58:38.360Z,32.20
2022-11-26T10:03:42.206Z,32.50
2022-11-26T10:08:50.058Z,32.40
2022-11-26T10:14:05.519Z,30.90
2022-11-26T10:19:13.629Z,30.80
2022-11-26T10:29:46.044Z,30.90
2022-11-26T10:34:53.077Z,30.70
2022-11-26T10:40:26.443Z,30.40
2022-11-26T10:45:37.919Z,30.00
2022-11-26T10:56:07.012Z,29.50
2022-11-26T11:01:14.149Z,29.70
2022-11-26T11:06:19.372Z,29.20
2022-11-26T11:11:21.477Z,29.10
2022-11-26T11:16:30.522Z,28.90
2022-11-26T11:21:39.785Z,28.50
2022-11-26T11:26:47.490Z,29.10
2022-11-26T11:31:49.599Z,29.20
2022-11-26T11:37:14.939Z,28.40
2022-11-26T11:42:29.135Z,27.90
2022-11-26T11:47:43.672Z,28.20
2022-11-26T11:53:19.421Z,27.10
2022-11-26T11:58:38.078Z,26.40
2022-11-26T12:04:18.072Z,26.80
2022-11-26T12:09:51.132Z,26.10
2022-11-26T12:15:11.348Z,25.80
2022-11-26T12:20:19.130Z,25.60
2022-11-26T12:25:35.125Z,25.50
2022-11-26T12:30:55.507Z,25.60
2022-11-26T12:36:05.204Z,25.70
2022-11-26T12:41:21.153Z,25.70
2022-11-26T12:46:31.659Z,25.60
2022-11-26T12:52:01.948Z,25.40
2022-11-26T12:57:37.496Z,25.60
2022-11-26T13:02:45.691Z,25.50
2022-11-26T13:07:47.923Z,25.60
2022-11-26T13:13:10.246Z,25.60
2022-11-26T13:18:40.417Z,25.40
2022-11-26T13:24:18.668Z,25.60
2022-11-26T13:29:27.965Z,25.40
2022-11-26T13:34:54.351Z,25.40
2022-11-26T13:40:28.581Z,25.50
2022-11-26T13:45:30.593Z,25.40
2022-11-26T13:50:44.587Z,25.10
2022-11-26T13:55:54.038Z,24.80
2022-11-26T14:00:56.346Z,24.90
2022-11-26T14:06:01.361Z,25.10
2022-11-26T14:11:08.485Z,24.90
2022-11-26T14:16:10.708Z,24.90
2022-11-26T14:21:13.286Z,24.70
2022-11-26T14:26:27.064Z,24.80
2022-11-26T14:31:31.141Z,24.80
2022-11-26T14:36:33.306Z,24.90
2022-11-26T14:41:42.468Z,25.00
2022-11-26T14:46:58.129Z,25.10
2022-11-26T14:52:02.560Z,25.10
2022-11-26T14:57:20.318Z,25.10
2022-11-26T15:02:24.680Z,24.90
2022-11-26T15:07:29.363Z,24.90
2022-11-26T15:12:32.826Z,24.90
2022-11-26T15:17:35.577Z,25.00
2022-11-26T15:22:39.502Z,24.90
2022-11-26T15:27:48.505Z,24.80
2022-11-26T15:33:19.794Z,24.80
2022-11-26T15:38:22.585Z,25.10
2022-11-26T15:43:40.605Z,25.10
2022-11-26T15:49:00.632Z,25.30
2022-11-26T15:54:04.542Z,25.20
2022-11-26T15:59:15.050Z,25.40
2022-11-26T16:04:39.022Z,25.60
2022-11-26T16:09:42.442Z,25.40
2022-11-26T16:14:44.526Z,25.60
2022-11-26T16:19:53.341Z,25.60
2022-11-26T16:25:05.281Z,25.80
2022-11-26T16:30:15.231Z,26.00
2022-11-26T16:35:44.295Z,26.00
2022-11-26T16:40:39.340Z,26.20
2022-11-26T16:50:44.051Z,26.10
2022-11-26T16:55:46.479Z,26.30
2022-11-26T17:00:50.780Z,26.30
2022-11-26T17:05:56.176Z,26.20
2022-11-26T17:10:58.421Z,26.20
2022-11-26T17:16:01.458Z,26.30
2022-11-26T17:21:03.616Z,26.20
2022-11-26T17:26:18.597Z,26.20
2022-11-26T17:36:23.438Z,26.20
2022-11-26T17:41:25.516Z,26.20
2022-11-26T17:46:27.731Z,26.20
2022-11-26T17:51:29.842Z,26.20
2022-11-26T17:56:31.963Z,26.20
2022-11-26T18:01:34.062Z,26.10
2022-11-26T18:06:51.138Z,26.10
2022-11-26T18:11:56.015Z,26.10
2022-11-26T18:16:58.102Z,26.10
2022-11-26T18:22:00.205Z,26.30
2022-11-26T18:27:02.426Z,26.30
2022-11-26T18:32:04.592Z,26.60
2022-11-26T18:37:07.059Z,26.60
2022-11-26T18:42:35.937Z,26.50
2022-11-26T18:47:31.555Z,26.70
2022-11-26T18:57:36.775Z,26.70
2022-11-26T19:02:38.917Z,26.80
2022-11-26T19:07:41.532Z,26.80
2022-11-26T19:12:43.698Z,26.80
2022-11-26T19:17:45.903Z,26.90
2022-11-26T19:22:47.982Z,26.90
2022-11-26T19:27:50.195Z,26.80
2022-11-26T19:32:52.285Z,26.80
2022-11-26T19:37:54.389Z,26.80
2022-11-26T19:42:56.466Z,26.80
2022-11-26T19:47:58.544Z,26.60
2022-11-26T19:53:00.685Z,26.40
2022-11-26T19:58:02.793Z,26.20
2022-11-26T20:03:04.908Z,26.10
2022-11-26T20:08:08.220Z,26.80
2022-11-26T20:13:11.205Z,26.70
2022-11-26T20:18:17.793Z,26.70
2022-11-26T20:23:19.892Z,26.80
2022-11-26T20:33:24.514Z,27.00
2022-11-26T20:38:26.589Z,27.30
2022-11-26T20:43:28.724Z,27.70
2022-11-26T20:48:31.881Z,27.60
2022-11-26T20:53:35.445Z,27.80
2022-11-26T20:58:37.542Z,28.00
2022-11-26T21:03:39.615Z,28.40
2022-11-26T21:08:42.499Z,28.10
2022-11-26T21:13:44.710Z,28.10
2022-11-26T21:18:47.093Z,28.10
2022-11-26T21:23:49.767Z,28.60
2022-11-26T21:28:52.595Z,28.40
2022-11-26T21:33:57.798Z,28.40
2022-11-26T21:38:59.882Z,28.50
2022-11-26T21:49:06.953Z,28.50
2022-11-26T21:54:10.292Z,28.40
2022-11-26T21:59:12.438Z,29.20
2022-11-26T22:04:17.582Z,28.60
2022-11-26T22:09:19.989Z,28.80
2022-11-26T22:14:22.138Z,28.90
2022-11-26T22:19:24.257Z,29.10
2022-11-26T22:24:26.363Z,29.10
2022-11-26T22:29:28.445Z,29.20
2022-11-26T22:34:30.650Z,29.30
2022-11-26T22:39:32.783Z,29.10
2022-11-26T22:44:34.902Z,29.10
2022-11-26T22:49:37.180Z,29.20
2022-11-26T22:54:39.534Z,29.00
2022-11-26T23:04:45.886Z,28.80
2022-11-26T23:09:48.389Z,28.80
2022-11-26T23:14:50.770Z,28.90
2022-11-26T23:19:52.775Z,29.00
2022-11-26T23:24:54.821Z,28.90
2022-11-26T23:29:58.149Z,28.70
2022-11-26T23:35:00.241Z,28.50
2022-11-26T23:40:02.303Z,28.40
2022-11-26T23:45:04.780Z,28.30
2022-11-26T23:50:08.404Z,28.30
2022-11-26T23:55:10.495Z,28.30
